createdAt,value
2018-09-16T00:00:04.838Z,31.53
2018-09-16T00:02:37.887Z,37.47
2018-09-16T00:05:11.165Z,30.03
2018-09-16T00:07:42.369Z,31.07
2018-09-16T00:10:14.209Z,37.13
2018-09-16T00:12:45.423Z,28.50
2018-09-16T00:15:17.088Z,36.37
2018-09-16T00:17:48.198Z,31.77
2018-09-16T00:20:19.965Z,36.90
2018-09-16T00:22:51.357Z,35.97
2018-09-16T00:25:23.327Z,35.23
2018-09-16T00:27:54.913Z,23.90
2018-09-16T00:30:26.585Z,29.27
2018-09-16T00:32:57.913Z,27.37
2018-09-16T00:35:29.750Z,31.33
2018-09-16T00:38:01.574Z,33.00
2018-09-16T00:40:33.373Z,36.30
2018-09-16T00:43:04.721Z,27.20
2018-09-16T00:45:36.605Z,34.80
2018-09-16T00:48:08.033Z,34.77
2018-09-16T00:50:39.478Z,32.43
2018-09-16T00:53:10.917Z,29.10
2018-09-16T00:55:42.702Z,35.87
2018-09-16T00:58:13.969Z,38.17
2018-09-16T01:00:49.745Z,34.83
2018-09-16T01:03:21.118Z,30.27
2018-09-16T01:05:58.079Z,29.73
2018-09-16T01:08:29.473Z,25.30
2018-09-16T01:11:01.031Z,36.20
2018-09-16T01:13:32.393Z,28.13
2018-09-16T01:16:04.694Z,33.43
2018-09-16T01:18:36.186Z,32.93
2018-09-16T01:21:07.517Z,39.07
2018-09-16T01:23:38.910Z,31.67
2018-09-16T01:26:10.968Z,34.13
2018-09-16T01:28:42.610Z,29.73
2018-09-16T01:31:14.149Z,32.00
2018-09-16T01:33:45.702Z,25.40
2018-09-16T01:36:17.231Z,31.37
2018-09-16T01:38:53.729Z,34.60
2018-09-16T01:41:26.240Z,29.50
2018-09-16T01:43:57.512Z,31.10
2018-09-16T01:46:29.254Z,42.03
2018-09-16T01:49:00.801Z,25.93
2018-09-16T01:51:32.454Z,31.10
2018-09-16T01:54:03.853Z,29.47
2018-09-16T01:56:35.373Z,25.60
2018-09-16T01:59:06.621Z,34.77
2018-09-16T02:01:38.137Z,40.37
2018-09-16T02:04:09.517Z,39.87
2018-09-16T02:06:42.397Z,31.20
2018-09-16T02:09:13.650Z,31.73
2018-09-16T02:11:46.038Z,31.50
2018-09-16T02:14:16.867Z,27.33
2018-09-16T02:16:47.885Z,33.73
2018-09-16T02:19:18.913Z,30.30
2018-09-16T02:21:50.714Z,34.07
2018-09-16T02:24:23.141Z,32.03
2018-09-16T02:26:54.637Z,30.00
2018-09-16T02:29:26.222Z,27.33
2018-09-16T02:31:58.894Z,34.43
2018-09-16T02:34:30.301Z,31.13
2018-09-16T02:37:01.891Z,23.27
2018-09-16T02:39:33.314Z,24.90
2018-09-16T02:42:05.946Z,24.47
2018-09-16T02:44:37.458Z,22.83
2018-09-16T02:47:09.301Z,20.33
2018-09-16T02:49:40.730Z,30.47
2018-09-16T02:52:12.566Z,27.40
2018-09-16T02:54:44.075Z,28.37
2018-09-16T02:57:15.746Z,30.77
2018-09-16T02:59:47.199Z,22.73
2018-09-16T03:02:19.715Z,28.70
2018-09-16T03:04:51.340Z,43.00
2018-09-16T03:07:24.549Z,38.40
2018-09-16T03:09:56.485Z,33.57
2018-09-16T03:12:28.194Z,25.00
2018-09-16T03:14:59.786Z,30.83
2018-09-16T03:17:31.466Z,28.20
2018-09-16T03:20:02.930Z,33.87
2018-09-16T03:22:34.437Z,25.73
2018-09-16T03:25:05.711Z,22.73
2018-09-16T03:27:37.605Z,32.87
2018-09-16T03:30:09.177Z,31.70
2018-09-16T03:32:40.947Z,27.33
2018-09-16T03:35:12.461Z,33.87
2018-09-16T03:37:44.121Z,27.53
2018-09-16T03:40:15.380Z,23.73
2018-09-16T03:42:47.469Z,37.30
2018-09-16T03:45:18.677Z,27.10
2018-09-16T03:47:50.302Z,31.63
2018-09-16T03:50:21.870Z,37.60
2018-09-16T03:52:53.441Z,30.30
2018-09-16T03:55:24.774Z,25.50
2018-09-16T03:57:56.511Z,43.70
2018-09-16T04:00:27.849Z,26.03
2018-09-16T04:02:59.570Z,31.43
2018-09-16T04:05:31.069Z,28.60
2018-09-16T04:08:03.949Z,34.23
2018-09-16T04:10:35.452Z,39.33
2018-09-16T04:13:06.990Z,29.07
2018-09-16T04:15:38.538Z,37.90
2018-09-16T04:18:10.345Z,29.00
2018-09-16T04:20:41.954Z,48.90
2018-09-16T04:23:13.598Z,28.87
2018-09-16T04:25:45.145Z,40.37
2018-09-16T04:28:16.664Z,27.80
2018-09-16T04:30:48.689Z,34.83
2018-09-16T04:33:20.337Z,36.07
2018-09-16T04:35:51.830Z,39.47
2018-09-16T04:38:23.530Z,41.87
2018-09-16T04:40:54.808Z,40.43
2018-09-16T04:43:26.510Z,45.57
2018-09-16T04:45:57.913Z,46.07
2018-09-16T04:48:29.506Z,50.50
2018-09-16T04:51:00.957Z,44.50
2018-09-16T04:53:33.500Z,38.70
2018-09-16T04:56:04.820Z,49.27
2018-09-16T04:58:37.086Z,53.90
2018-09-16T05:01:08.955Z,53.05
2018-09-16T05:03:40.454Z,54.13
2018-09-16T05:06:11.553Z,64.55
2018-09-16T05:08:44.573Z,60.45
2018-09-16T05:11:15.912Z,60.25
2018-09-16T05:13:47.501Z,60.05
2018-09-16T05:16:18.722Z,60.17
2018-09-16T05:18:50.603Z,66.65
2018-09-16T05:21:21.526Z,67.12
2018-09-16T05:23:53.255Z,100.47
2018-09-16T05:26:24.609Z,120.40
2018-09-16T05:28:56.301Z,122.53
2018-09-16T05:31:27.673Z,118.10
2018-09-16T05:33:59.339Z,149.90
2018-09-16T05:36:30.969Z,204.53
2018-09-16T05:39:02.507Z,390.92
2018-09-16T05:41:33.998Z,348.48
2018-09-16T05:44:05.750Z,356.63
2018-09-16T05:46:37.050Z,330.65
2018-09-16T05:49:08.380Z,267.05
2018-09-16T05:51:39.531Z,265.52
2018-09-16T05:54:10.879Z,237.95
2018-09-16T05:56:41.755Z,249.05
2018-09-16T05:59:14.164Z,174.65
2018-09-16T06:01:45.889Z,135.32
2018-09-16T06:04:17.486Z,135.40
2018-09-16T06:06:48.974Z,124.90
2018-09-16T06:09:21.687Z,127.22
2018-09-16T06:11:52.710Z,90.00
2018-09-16T06:14:24.238Z,87.35
2018-09-16T06:16:55.323Z,62.67
2018-09-16T06:19:26.903Z,86.22
2018-09-16T06:21:58.337Z,67.42
2018-09-16T06:24:29.771Z,48.63
2018-09-16T06:27:00.905Z,75.32
2018-09-16T06:29:32.119Z,62.33
2018-09-16T06:32:04.022Z,53.75
2018-09-16T06:34:35.240Z,49.53
2018-09-16T06:37:06.234Z,46.15
2018-09-16T06:39:37.645Z,47.03
2018-09-16T06:42:08.802Z,75.92
2018-09-16T06:44:40.334Z,49.10
2018-09-16T06:47:11.278Z,41.40
2018-09-16T06:49:43.561Z,45.08
2018-09-16T06:52:14.830Z,46.83
2018-09-16T06:54:46.059Z,43.45
2018-09-16T06:57:17.189Z,34.85
2018-09-16T06:59:48.937Z,50.70
2018-09-16T07:02:20.030Z,45.03
2018-09-16T07:04:51.293Z,50.78
2018-09-16T07:07:22.416Z,33.53
2018-09-16T07:09:55.374Z,50.12
2018-09-16T07:12:26.732Z,27.15
2018-09-16T07:14:58.114Z,34.50
2018-09-16T07:17:29.566Z,33.45
2018-09-16T07:20:00.853Z,30.08
2018-09-16T07:22:32.987Z,26.50
2018-09-16T07:25:07.192Z,27.48
2018-09-16T07:27:38.791Z,31.85
2018-09-16T07:30:10.292Z,29.65
2018-09-16T07:32:42.359Z,26.55
2018-09-16T07:35:13.878Z,31.95
2018-09-16T07:37:45.309Z,26.00
2018-09-16T07:40:16.651Z,28.98
2018-09-16T07:42:47.594Z,27.25
2018-09-16T07:45:18.758Z,27.98
2018-09-16T07:47:50.132Z,40.95
2018-09-16T07:50:21.841Z,31.30
2018-09-16T07:52:53.251Z,29.57
2018-09-16T07:55:24.842Z,26.10
2018-09-16T07:57:56.249Z,25.15
2018-09-16T08:00:28.449Z,27.10
2018-09-16T08:02:59.989Z,40.05
2018-09-16T08:05:31.732Z,32.28
2018-09-16T08:08:03.626Z,30.17
2018-09-16T08:10:36.249Z,29.65
2018-09-16T08:13:08.955Z,32.05
2018-09-16T08:15:40.708Z,27.17
2018-09-16T08:18:11.809Z,27.85
2018-09-16T08:20:43.664Z,17.82
2018-09-16T08:23:14.917Z,31.45
2018-09-16T08:25:46.497Z,33.83
2018-09-16T08:28:18.001Z,28.10
2018-09-16T08:30:49.933Z,29.90
2018-09-16T08:33:21.273Z,22.25
2018-09-16T08:35:54.135Z,29.90
2018-09-16T08:38:26.056Z,31.27
2018-09-16T08:40:57.771Z,32.85
2018-09-16T08:43:28.842Z,37.30
2018-09-16T08:46:00.483Z,29.25
2018-09-16T08:48:32.006Z,22.40
2018-09-16T08:51:04.102Z,31.73
2018-09-16T08:53:35.222Z,26.97
2018-09-16T08:56:07.387Z,27.10
2018-09-16T08:58:38.949Z,22.80
2018-09-16T09:01:10.686Z,25.37
2018-09-16T09:03:42.085Z,23.70
2018-09-16T09:06:14.133Z,23.95
2018-09-16T09:08:45.906Z,27.80
2018-09-16T09:11:18.469Z,23.18
2018-09-16T09:13:49.645Z,26.73
2018-09-16T09:16:21.282Z,28.15
2018-09-16T09:18:52.232Z,20.10
2018-09-16T09:21:23.674Z,31.00
2018-09-16T09:23:54.753Z,24.90
2018-09-16T09:26:26.649Z,26.37
2018-09-16T09:28:57.708Z,34.90
2018-09-16T09:31:29.030Z,36.23
2018-09-16T09:34:00.241Z,21.55
2018-09-16T09:36:31.866Z,23.38
2018-09-16T09:39:04.001Z,29.25
2018-09-16T09:41:35.285Z,23.60
2018-09-16T09:44:07.137Z,23.10
2018-09-16T09:46:39.577Z,22.93
2018-09-16T09:49:10.612Z,32.80
2018-09-16T09:51:43.343Z,26.82
2018-09-16T09:54:14.624Z,26.80
2018-09-16T09:56:46.138Z,21.82
2018-09-16T09:59:17.441Z,26.52
2018-09-16T10:01:49.218Z,26.27
2018-09-16T10:04:20.419Z,22.27
2018-09-16T10:06:51.590Z,22.52
2018-09-16T10:09:23.145Z,20.88
2018-09-16T10:11:55.762Z,23.50
2018-09-16T10:14:26.957Z,28.57
2018-09-16T10:16:58.369Z,31.77
2018-09-16T10:19:29.465Z,29.50
2018-09-16T10:22:01.029Z,34.03
2018-09-16T10:24:32.071Z,27.37
2018-09-16T10:27:05.337Z,40.60
2018-09-16T10:29:36.406Z,19.52
2018-09-16T10:32:08.191Z,23.22
2018-09-16T10:34:39.294Z,31.62
2018-09-16T10:37:11.639Z,21.70
2018-09-16T10:39:42.640Z,25.08
2018-09-16T10:42:13.973Z,22.32
2018-09-16T10:44:45.370Z,28.38
2018-09-16T10:47:16.932Z,21.68
2018-09-16T10:49:48.201Z,31.23
2018-09-16T10:52:19.798Z,23.20
2018-09-16T10:54:50.898Z,25.95
2018-09-16T10:57:22.243Z,30.60
2018-09-16T10:59:53.611Z,28.67
2018-09-16T11:02:24.889Z,25.62
2018-09-16T11:04:55.934Z,24.35
2018-09-16T11:07:27.666Z,19.30
2018-09-16T11:09:58.714Z,20.25
2018-09-16T11:12:31.258Z,19.17
2018-09-16T11:15:02.265Z,27.20
2018-09-16T11:17:33.713Z,26.07
2018-09-16T11:20:04.779Z,34.10
2018-09-16T11:22:36.177Z,26.30
2018-09-16T11:25:07.743Z,24.53
2018-09-16T11:27:39.328Z,32.40
2018-09-16T11:30:10.720Z,24.67
2018-09-16T11:32:42.207Z,26.30
2018-09-16T11:35:13.270Z,22.67
2018-09-16T11:37:44.670Z,25.50
2018-09-16T11:40:15.735Z,23.37
2018-09-16T11:42:47.133Z,36.45
2018-09-16T11:45:18.537Z,22.83
2018-09-16T11:47:50.024Z,31.50
2018-09-16T11:50:21.333Z,28.93
2018-09-16T11:52:53.041Z,33.70
2018-09-16T11:55:24.257Z,30.03
2018-09-16T11:57:55.968Z,37.57
2018-09-16T12:00:27.301Z,44.43
2018-09-16T12:02:58.855Z,44.47
2018-09-16T12:05:30.334Z,55.83
2018-09-16T12:08:02.619Z,39.77
2018-09-16T12:10:33.445Z,48.63
2018-09-16T12:13:07.465Z,35.47
2018-09-16T12:15:38.929Z,26.20
2018-09-16T12:18:10.479Z,29.10
2018-09-16T12:20:42.225Z,21.80
2018-09-16T12:23:14.007Z,28.60
2018-09-16T12:25:45.546Z,26.97
2018-09-16T12:28:17.210Z,29.73
2018-09-16T12:30:48.793Z,24.33
2018-09-16T12:33:20.509Z,25.63
2018-09-16T12:35:51.889Z,28.80
2018-09-16T12:38:23.897Z,27.50
2018-09-16T12:40:55.254Z,27.43
2018-09-16T12:43:26.734Z,30.30
2018-09-16T12:45:57.781Z,28.90
2018-09-16T12:48:29.314Z,32.17
2018-09-16T12:51:00.726Z,35.77
2018-09-16T12:53:32.490Z,34.17
2018-09-16T12:56:04.426Z,27.37
2018-09-16T12:58:36.691Z,36.73
2018-09-16T13:01:08.342Z,27.73
2018-09-16T13:03:40.117Z,37.53
2018-09-16T13:06:11.497Z,32.00
2018-09-16T13:08:43.125Z,27.17
2018-09-16T13:11:14.705Z,32.40
2018-09-16T13:13:47.715Z,44.30
2018-09-16T13:16:19.109Z,28.73
2018-09-16T13:18:50.909Z,31.07
2018-09-16T13:21:22.278Z,21.47
2018-09-16T13:23:53.786Z,30.73
2018-09-16T13:26:25.602Z,28.03
2018-09-16T13:28:57.199Z,29.43
2018-09-16T13:31:28.228Z,24.73
2018-09-16T13:33:59.856Z,37.53
2018-09-16T13:36:30.826Z,29.20
2018-09-16T13:39:02.161Z,21.53
2018-09-16T13:41:33.926Z,19.00
2018-09-16T13:44:07.750Z,26.60
2018-09-16T13:46:39.197Z,33.30
2018-09-16T13:49:10.524Z,36.53
2018-09-16T13:51:41.931Z,25.60
2018-09-16T13:54:13.585Z,37.87
2018-09-16T13:56:44.989Z,34.40
2018-09-16T13:59:16.939Z,35.53
2018-09-16T14:01:50.162Z,40.70
2018-09-16T14:04:22.225Z,32.03
2018-09-16T14:06:53.647Z,31.20
2018-09-16T14:09:25.528Z,26.83
2018-09-16T14:11:57.777Z,33.53
2018-09-16T14:14:30.511Z,32.50
2018-09-16T14:17:01.861Z,27.90
2018-09-16T14:19:33.541Z,21.80
2018-09-16T14:22:05.747Z,33.77
2018-09-16T14:24:37.220Z,33.37
2018-09-16T14:27:08.613Z,37.97
2018-09-16T14:29:40.554Z,34.90
2018-09-16T14:32:11.866Z,29.40
2018-09-16T14:34:43.614Z,30.43
2018-09-16T14:37:15.110Z,25.40
2018-09-16T14:39:47.083Z,24.13
2018-09-16T14:42:18.413Z,31.83
2018-09-16T14:44:50.445Z,26.73
2018-09-16T14:47:21.761Z,30.47
2018-09-16T14:49:53.718Z,26.13
2018-09-16T14:52:25.066Z,30.53
2018-09-16T14:54:56.606Z,33.97
2018-09-16T14:57:27.618Z,29.00
2018-09-16T14:59:59.122Z,35.63
2018-09-16T15:02:30.381Z,28.73
2018-09-16T15:05:02.221Z,32.33
2018-09-16T15:07:33.266Z,27.07
2018-09-16T15:10:04.982Z,35.43
2018-09-16T15:12:36.221Z,32.43
2018-09-16T15:15:08.810Z,36.53
2018-09-16T15:17:40.173Z,33.83
2018-09-16T15:20:11.607Z,25.70
2018-09-16T15:22:42.746Z,37.93
2018-09-16T15:25:14.096Z,50.40
2018-09-16T15:27:45.293Z,42.90
2018-09-16T15:30:16.521Z,31.40
2018-09-16T15:32:47.761Z,48.43
2018-09-16T15:35:19.839Z,34.70
2018-09-16T15:37:51.018Z,44.33
2018-09-16T15:40:22.337Z,37.70
2018-09-16T15:42:53.866Z,36.77
2018-09-16T15:45:25.333Z,37.90
2018-09-16T15:47:56.410Z,42.77
2018-09-16T15:50:27.692Z,38.13
2018-09-16T15:52:58.730Z,54.40
2018-09-16T15:55:30.330Z,43.13
2018-09-16T15:58:02.631Z,49.83
2018-09-16T16:00:34.377Z,33.77
2018-09-16T16:03:05.649Z,42.90
2018-09-16T16:05:37.301Z,37.77
2018-09-16T16:08:08.542Z,38.73
2018-09-16T16:10:40.248Z,41.67
2018-09-16T16:13:11.306Z,44.87
2018-09-16T16:15:44.025Z,30.53
2018-09-16T16:18:16.072Z,40.60
2018-09-16T16:20:48.192Z,35.23
2018-09-16T16:23:19.342Z,42.07
2018-09-16T16:25:51.021Z,41.37
2018-09-16T16:28:22.249Z,39.60
2018-09-16T16:30:53.734Z,44.80
2018-09-16T16:33:25.089Z,42.40
2018-09-16T16:35:56.834Z,47.93
2018-09-16T16:38:28.269Z,31.00
2018-09-16T16:40:59.973Z,39.43
2018-09-16T16:43:31.010Z,30.03
2018-09-16T16:46:02.630Z,44.80
2018-09-16T16:48:34.499Z,30.33
2018-09-16T16:51:06.366Z,32.00
2018-09-16T16:53:37.893Z,30.67
2018-09-16T16:56:09.266Z,29.53
2018-09-16T16:58:40.498Z,30.53
2018-09-16T17:01:12.523Z,35.13
2018-09-16T17:03:43.795Z,42.17
2018-09-16T17:06:15.910Z,30.57
2018-09-16T17:08:46.949Z,30.60
2018-09-16T17:11:18.657Z,36.63
2018-09-16T17:13:49.857Z,36.30
2018-09-16T17:16:23.036Z,40.50
2018-09-16T17:18:55.077Z,36.17
2018-09-16T17:21:26.484Z,34.73
2018-09-16T17:23:58.054Z,35.73
2018-09-16T17:26:29.943Z,29.63
2018-09-16T17:29:01.655Z,28.43
2018-09-16T17:31:33.434Z,32.60
2018-09-16T17:34:04.935Z,31.63
2018-09-16T17:36:36.503Z,39.10
2018-09-16T17:39:10.237Z,30.03
2018-09-16T17:41:42.525Z,42.07
2018-09-16T17:44:13.859Z,40.87
2018-09-16T17:46:45.715Z,51.20
2018-09-16T17:49:17.114Z,40.70
2018-09-16T17:51:48.615Z,38.20
2018-09-16T17:54:19.906Z,36.63
2018-09-16T17:56:51.599Z,42.80
2018-09-16T17:59:23.175Z,35.63
2018-09-16T18:01:54.701Z,37.10
2018-09-16T18:04:27.489Z,36.77
2018-09-16T18:06:59.309Z,39.37
2018-09-16T18:09:30.673Z,28.50
2018-09-16T18:12:02.434Z,26.87
2018-09-16T18:14:33.949Z,39.00
2018-09-16T18:17:08.061Z,26.00
2018-09-16T18:19:39.629Z,31.03
2018-09-16T18:22:11.819Z,31.00
2018-09-16T18:24:42.977Z,43.53
2018-09-16T18:27:14.993Z,39.87
2018-09-16T18:29:46.199Z,25.67
2018-09-16T18:32:18.037Z,41.70
2018-09-16T18:34:49.460Z,46.07
2018-09-16T18:37:20.990Z,28.47
2018-09-16T18:39:52.337Z,32.13
2018-09-16T18:42:24.298Z,31.83
2018-09-16T18:44:55.962Z,36.07
2018-09-16T18:47:27.666Z,29.93
2018-09-16T18:49:59.086Z,31.90
2018-09-16T18:52:31.190Z,32.93
2018-09-16T18:55:02.306Z,23.67
2018-09-16T18:57:34.070Z,35.27
2018-09-16T19:00:05.588Z,24.57
2018-09-16T19:02:37.425Z,25.23
2018-09-16T19:05:09.091Z,33.50
2018-09-16T19:07:40.851Z,23.87
2018-09-16T19:10:12.413Z,31.33
2018-09-16T19:12:44.110Z,31.27
2018-09-16T19:15:15.503Z,27.57
2018-09-16T19:17:48.188Z,31.90
2018-09-16T19:20:19.859Z,31.17
2018-09-16T19:22:51.804Z,27.13
2018-09-16T19:25:23.838Z,30.00
2018-09-16T19:27:55.481Z,31.47
2018-09-16T19:30:26.878Z,27.60
2018-09-16T19:32:58.417Z,33.03
2018-09-16T19:35:29.702Z,30.10
2018-09-16T19:38:01.596Z,32.40
2018-09-16T19:40:33.107Z,36.60
2018-09-16T19:43:04.774Z,32.53
2018-09-16T19:45:36.230Z,33.57
2018-09-16T19:48:08.113Z,37.20
2018-09-16T19:50:39.482Z,21.43
2018-09-16T19:53:11.910Z,28.63
2018-09-16T19:55:43.161Z,32.50
2018-09-16T19:58:14.970Z,24.80
2018-09-16T20:00:46.389Z,35.90
2018-09-16T20:03:18.184Z,37.73
2018-09-16T20:05:49.660Z,28.20
2018-09-16T20:08:21.058Z,24.00
2018-09-16T20:10:52.518Z,33.73
2018-09-16T20:13:24.123Z,26.43
2018-09-16T20:15:56.212Z,36.10
2018-09-16T20:18:28.998Z,28.57
2018-09-16T20:21:00.545Z,33.67
2018-09-16T20:23:31.939Z,37.67
2018-09-16T20:26:03.697Z,30.53
2018-09-16T20:28:35.439Z,31.90
2018-09-16T20:31:07.044Z,33.47
2018-09-16T20:33:39.094Z,35.33
2018-09-16T20:36:10.198Z,28.70
2018-09-16T20:38:41.806Z,45.83
2018-09-16T20:41:13.178Z,33.63
2018-09-16T20:43:44.776Z,32.27
2018-09-16T20:46:16.501Z,39.00
2018-09-16T20:48:48.077Z,30.40
2018-09-16T20:51:19.426Z,34.87
2018-09-16T20:53:51.780Z,32.53
2018-09-16T20:56:23.065Z,27.83
2018-09-16T20:58:54.758Z,30.00
2018-09-16T21:01:26.610Z,34.17
2018-09-16T21:03:58.890Z,30.80
2018-09-16T21:06:30.109Z,31.70
2018-09-16T21:09:02.685Z,27.30
2018-09-16T21:11:34.084Z,34.13
2018-09-16T21:14:05.995Z,28.43
2018-09-16T21:16:37.337Z,35.13
2018-09-16T21:19:10.031Z,25.50
2018-09-16T21:21:41.407Z,31.13
2018-09-16T21:24:13.165Z,26.40
2018-09-16T21:26:45.111Z,25.70
2018-09-16T21:29:16.875Z,27.00
2018-09-16T21:31:48.282Z,28.67
2018-09-16T21:34:20.011Z,32.50
2018-09-16T21:36:51.425Z,28.43
2018-09-16T21:39:22.897Z,32.63
2018-09-16T21:41:54.320Z,27.50
2018-09-16T21:44:25.963Z,32.77
2018-09-16T21:46:57.369Z,33.90
2018-09-16T21:49:28.906Z,34.07
2018-09-16T21:52:00.202Z,29.10
2018-09-16T21:54:31.896Z,30.90
2018-09-16T21:57:03.723Z,25.13
2018-09-16T21:59:35.386Z,21.23
2018-09-16T22:02:06.905Z,33.13
2018-09-16T22:04:38.249Z,34.93
2018-09-16T22:07:09.629Z,31.37
2018-09-16T22:09:41.458Z,25.33
2018-09-16T22:12:12.731Z,26.53
2018-09-16T22:14:44.397Z,39.43
2018-09-16T22:17:16.030Z,34.17
2018-09-16T22:19:48.774Z,32.37
2018-09-16T22:22:20.258Z,25.07
2018-09-16T22:24:51.901Z,26.97
2018-09-16T22:27:23.481Z,26.20
2018-09-16T22:29:55.342Z,29.50
2018-09-16T22:32:26.708Z,28.03
2018-09-16T22:34:58.685Z,29.23
2018-09-16T22:37:30.224Z,25.77
2018-09-16T22:40:01.941Z,25.53
2018-09-16T22:42:33.332Z,27.00
2018-09-16T22:45:07.726Z,27.43
2018-09-16T22:47:40.234Z,24.97
2018-09-16T22:50:12.386Z,31.10
2018-09-16T22:52:43.747Z,27.33
2018-09-16T22:55:15.589Z,23.77
2018-09-16T22:57:47.098Z,25.70
2018-09-16T23:00:19.169Z,30.13
2018-09-16T23:02:50.309Z,30.07
2018-09-16T23:05:21.989Z,31.83
2018-09-16T23:07:53.206Z,27.17
2018-09-16T23:10:24.989Z,35.93
2018-09-16T23:12:56.481Z,26.83
2018-09-16T23:15:28.050Z,27.30
2018-09-16T23:17:59.486Z,23.70
2018-09-16T23:20:32.814Z,31.67
2018-09-16T23:23:05.930Z,29.90
2018-09-16T23:25:37.601Z,37.50
2018-09-16T23:28:08.986Z,24.27
2018-09-16T23:30:40.906Z,26.20
2018-09-16T23:33:12.298Z,27.10
2018-09-16T23:35:44.221Z,30.23
2018-09-16T23:38:15.534Z,30.63
2018-09-16T23:40:46.993Z,30.80
2018-09-16T23:43:18.525Z,32.63
2018-09-16T23:45:50.003Z,30.50
2018-09-16T23:48:21.474Z,27.77
2018-09-16T23:50:52.830Z,27.97
2018-09-16T23:53:24.125Z,26.63
2018-09-16T23:55:55.693Z,24.40
2018-09-16T23:58:27.173Z,31.60
